sensor_id;sensor_type;location;lat;lon;timestamp;P1;durP1;ratioP1;P2;durP2;ratioP2
22705;SDS011;11520;51.198;4.468;2023-02-28T00:01:28;9.88;;;7.15;;
22705;SDS011;11520;51.198;4.468;2023-02-28T00:03:55;11.48;;;8.25;;
22705;SDS011;11520;51.198;4.468;2023-02-28T00:06:20;10.80;;;7.70;;
22705;SDS011;11520;51.198;4.468;2023-02-28T00:08:46;11.77;;;7.47;;
22705;SDS011;11520;51.198;4.468;2023-02-28T00:11:13;17.20;;;8.98;;
22705;SDS011;11520;51.198;4.468;2023-02-28T00:13:42;11.38;;;7.10;;
22705;SDS011;11520;51.198;4.468;2023-02-28T00:16:15;11.50;;;7.20;;
22705;SDS011;11520;51.198;4.468;2023-02-28T00:18:46;12.88;;;8.13;;
22705;SDS011;11520;51.198;4.468;2023-02-28T00:21:15;11.23;;;7.40;;
22705;SDS011;11520;51.198;4.468;2023-02-28T00:23:44;12.90;;;7.45;;
22705;SDS011;11520;51.198;4.468;2023-02-28T00:26:09;15.57;;;8.13;;
22705;SDS011;11520;51.198;4.468;2023-02-28T00:28:37;15.20;;;7.90;;
22705;SDS011;11520;51.198;4.468;2023-02-28T00:31:03;9.95;;;7.25;;
22705;SDS011;11520;51.198;4.468;2023-02-28T00:33:29;15.95;;;8.35;;
22705;SDS011;11520;51.198;4.468;2023-02-28T00:36:05;11.75;;;7.90;;
22705;SDS011;11520;51.198;4.468;2023-02-28T00:38:33;12.38;;;8.27;;
22705;SDS011;11520;51.198;4.468;2023-02-28T00:41:00;11.27;;;8.60;;
22705;SDS011;11520;51.198;4.468;2023-02-28T00:43:29;13.57;;;8.27;;
22705;SDS011;11520;51.198;4.468;2023-02-28T00:45:56;13.93;;;7.68;;
22705;SDS011;11520;51.198;4.468;2023-02-28T00:48:22;12.63;;;8.00;;
22705;SDS011;11520;51.198;4.468;2023-02-28T00:50:51;13.20;;;9.02;;
22705;SDS011;11520;51.198;4.468;2023-02-28T00:53:16;13.50;;;8.90;;
22705;SDS011;11520;51.198;4.468;2023-02-28T00:55:42;13.35;;;8.10;;
22705;SDS011;11520;51.198;4.468;2023-02-28T00:58:09;13.50;;;9.00;;
22705;SDS011;11520;51.198;4.468;2023-02-28T01:00:35;11.00;;;8.15;;
22705;SDS011;11520;51.198;4.468;2023-02-28T01:03:00;12.90;;;8.30;;
22705;SDS011;11520;51.198;4.468;2023-02-28T01:05:26;14.32;;;8.50;;
22705;SDS011;11520;51.198;4.468;2023-02-28T01:07:52;11.10;;;8.70;;
22705;SDS011;11520;51.198;4.468;2023-02-28T01:10:17;11.90;;;8.50;;
22705;SDS011;11520;51.198;4.468;2023-02-28T01:12:43;12.38;;;8.45;;
22705;SDS011;11520;51.198;4.468;2023-02-28T01:15:10;15.20;;;7.97;;
22705;SDS011;11520;51.198;4.468;2023-02-28T01:17:36;13.73;;;8.43;;
22705;SDS011;11520;51.198;4.468;2023-02-28T01:20:02;13.48;;;8.43;;
22705;SDS011;11520;51.198;4.468;2023-02-28T01:22:28;13.07;;;8.40;;
22705;SDS011;11520;51.198;4.468;2023-02-28T01:24:54;13.65;;;9.13;;
22705;SDS011;11520;51.198;4.468;2023-02-28T01:27:21;15.60;;;9.02;;
22705;SDS011;11520;51.198;4.468;2023-02-28T01:29:47;10.68;;;7.82;;
22705;SDS011;11520;51.198;4.468;2023-02-28T01:32:12;11.98;;;8.13;;
22705;SDS011;11520;51.198;4.468;2023-02-28T01:34:38;13.80;;;9.63;;
22705;SDS011;11520;51.198;4.468;2023-02-28T01:37:03;12.02;;;8.35;;
22705;SDS011;11520;51.198;4.468;2023-02-28T01:39:31;13.13;;;8.20;;
22705;SDS011;11520;51.198;4.468;2023-02-28T01:47:20;11.32;;;8.65;;
22705;SDS011;11520;51.198;4.468;2023-02-28T01:49:48;11.02;;;7.60;;
22705;SDS011;11520;51.198;4.468;2023-02-28T01:52:16;14.48;;;8.70;;
22705;SDS011;11520;51.198;4.468;2023-02-28T01:54:44;12.68;;;8.30;;
22705;SDS011;11520;51.198;4.468;2023-02-28T01:57:18;12.60;;;8.63;;
22705;SDS011;11520;51.198;4.468;2023-02-28T01:59:57;13.10;;;8.53;;
22705;SDS011;11520;51.198;4.468;2023-02-28T02:02:29;12.93;;;8.10;;
22705;SDS011;11520;51.198;4.468;2023-02-28T02:07:33;12.18;;;8.38;;
22705;SDS011;11520;51.198;4.468;2023-02-28T02:18:27;12.20;;;8.48;;
22705;SDS011;11520;51.198;4.468;2023-02-28T02:21:13;12.30;;;9.13;;
22705;SDS011;11520;51.198;4.468;2023-02-28T02:31:53;12.98;;;8.57;;
22705;SDS011;11520;51.198;4.468;2023-02-28T02:34:52;12.70;;;8.38;;
22705;SDS011;11520;51.198;4.468;2023-02-28T02:40:18;12.15;;;8.38;;
22705;SDS011;11520;51.198;4.468;2023-02-28T02:42:59;12.55;;;8.77;;
22705;SDS011;11520;51.198;4.468;2023-02-28T02:45:42;15.05;;;8.85;;
22705;SDS011;11520;51.198;4.468;2023-02-28T02:48:18;15.82;;;8.82;;
22705;SDS011;11520;51.198;4.468;2023-02-28T02:50:48;12.68;;;8.50;;
22705;SDS011;11520;51.198;4.468;2023-02-28T02:53:17;11.15;;;8.32;;
22705;SDS011;11520;51.198;4.468;2023-02-28T02:55:47;11.55;;;8.60;;
22705;SDS011;11520;51.198;4.468;2023-02-28T02:58:19;12.10;;;8.07;;
22705;SDS011;11520;51.198;4.468;2023-02-28T03:00:54;12.00;;;8.07;;
22705;SDS011;11520;51.198;4.468;2023-02-28T03:03:23;12.75;;;9.05;;
22705;SDS011;11520;51.198;4.468;2023-02-28T03:05:54;14.98;;;8.13;;
22705;SDS011;11520;51.198;4.468;2023-02-28T03:08:22;14.80;;;9.00;;
22705;SDS011;11520;51.198;4.468;2023-02-28T03:10:50;14.30;;;8.75;;
22705;SDS011;11520;51.198;4.468;2023-02-28T03:13:37;10.95;;;8.38;;
22705;SDS011;11520;51.198;4.468;2023-02-28T03:24:33;12.00;;;8.07;;
22705;SDS011;11520;51.198;4.468;2023-02-28T03:27:11;11.90;;;8.60;;
22705;SDS011;11520;51.198;4.468;2023-02-28T03:29:54;12.00;;;8.00;;
22705;SDS011;11520;51.198;4.468;2023-02-28T03:35:23;15.48;;;8.25;;
22705;SDS011;11520;51.198;4.468;2023-02-28T03:38:03;11.73;;;8.70;;
22705;SDS011;11520;51.198;4.468;2023-02-28T03:40:39;13.85;;;7.70;;
22705;SDS011;11520;51.198;4.468;2023-02-28T03:43:12;12.30;;;8.00;;
22705;SDS011;11520;51.198;4.468;2023-02-28T03:45:43;13.13;;;7.95;;
22705;SDS011;11520;51.198;4.468;2023-02-28T03:48:31;12.43;;;7.90;;
22705;SDS011;11520;51.198;4.468;2023-02-28T03:51:05;10.32;;;7.90;;
22705;SDS011;11520;51.198;4.468;2023-02-28T03:53:36;13.48;;;8.45;;
22705;SDS011;11520;51.198;4.468;2023-02-28T03:56:07;13.38;;;8.45;;
22705;SDS011;11520;51.198;4.468;2023-02-28T04:04:13;11.23;;;7.93;;
22705;SDS011;11520;51.198;4.468;2023-02-28T04:06:41;11.13;;;8.05;;
22705;SDS011;11520;51.198;4.468;2023-02-28T04:09:10;14.27;;;7.90;;
22705;SDS011;11520;51.198;4.468;2023-02-28T04:11:41;11.93;;;8.02;;
22705;SDS011;11520;51.198;4.468;2023-02-28T04:14:10;15.50;;;8.23;;
22705;SDS011;11520;51.198;4.468;2023-02-28T04:16:37;13.40;;;7.40;;
22705;SDS011;11520;51.198;4.468;2023-02-28T04:19:05;10.48;;;7.80;;
22705;SDS011;11520;51.198;4.468;2023-02-28T04:21:32;10.60;;;7.45;;
22705;SDS011;11520;51.198;4.468;2023-02-28T04:24:00;20.60;;;8.88;;
22705;SDS011;11520;51.198;4.468;2023-02-28T04:26:29;9.95;;;7.22;;
22705;SDS011;11520;51.198;4.468;2023-02-28T04:28:59;13.77;;;8.10;;
22705;SDS011;11520;51.198;4.468;2023-02-28T04:31:25;11.07;;;7.82;;
22705;SDS011;11520;51.198;4.468;2023-02-28T04:33:51;13.48;;;7.28;;
22705;SDS011;11520;51.198;4.468;2023-02-28T04:36:17;10.80;;;7.32;;
22705;SDS011;11520;51.198;4.468;2023-02-28T04:38:43;11.95;;;8.20;;
22705;SDS011;11520;51.198;4.468;2023-02-28T04:41:10;12.00;;;7.50;;
22705;SDS011;11520;51.198;4.468;2023-02-28T04:43:36;12.82;;;7.50;;
22705;SDS011;11520;51.198;4.468;2023-02-28T04:46:03;11.52;;;7.47;;
22705;SDS011;11520;51.198;4.468;2023-02-28T04:48:30;10.60;;;7.57;;
22705;SDS011;11520;51.198;4.468;2023-02-28T04:51:05;13.55;;;8.18;;
22705;SDS011;11520;51.198;4.468;2023-02-28T04:53:33;13.73;;;7.60;;
22705;SDS011;11520;51.198;4.468;2023-02-28T04:56:02;10.70;;;7.22;;
22705;SDS011;11520;51.198;4.468;2023-02-28T04:58:29;12.25;;;7.22;;
22705;SDS011;11520;51.198;4.468;2023-02-28T05:01:01;12.82;;;7.72;;
22705;SDS011;11520;51.198;4.468;2023-02-28T05:03:39;11.63;;;7.32;;
22705;SDS011;11520;51.198;4.468;2023-02-28T05:06:07;10.52;;;7.15;;
22705;SDS011;11520;51.198;4.468;2023-02-28T05:08:34;11.52;;;7.00;;
22705;SDS011;11520;51.198;4.468;2023-02-28T05:11:01;11.43;;;7.07;;
22705;SDS011;11520;51.198;4.468;2023-02-28T05:13:29;11.98;;;6.70;;
22705;SDS011;11520;51.198;4.468;2023-02-28T05:15:55;10.40;;;6.75;;
22705;SDS011;11520;51.198;4.468;2023-02-28T05:18:21;10.70;;;6.82;;
22705;SDS011;11520;51.198;4.468;2023-02-28T05:20:47;12.55;;;6.93;;
22705;SDS011;11520;51.198;4.468;2023-02-28T05:23:13;10.80;;;6.72;;
22705;SDS011;11520;51.198;4.468;2023-02-28T05:25:39;9.70;;;6.45;;
22705;SDS011;11520;51.198;4.468;2023-02-28T05:28:07;9.80;;;6.70;;
22705;SDS011;11520;51.198;4.468;2023-02-28T05:30:32;10.63;;;7.57;;
22705;SDS011;11520;51.198;4.468;2023-02-28T05:32:58;11.77;;;6.72;;
22705;SDS011;11520;51.198;4.468;2023-02-28T05:35:25;11.90;;;6.90;;
22705;SDS011;11520;51.198;4.468;2023-02-28T05:37:50;11.30;;;6.72;;
22705;SDS011;11520;51.198;4.468;2023-02-28T05:40:17;9.07;;;6.70;;
22705;SDS011;11520;51.198;4.468;2023-02-28T05:42:46;10.40;;;6.93;;
22705;SDS011;11520;51.198;4.468;2023-02-28T05:45:12;8.88;;;6.40;;
22705;SDS011;11520;51.198;4.468;2023-02-28T05:47:41;10.63;;;6.65;;
22705;SDS011;11520;51.198;4.468;2023-02-28T05:50:13;9.35;;;6.43;;
22705;SDS011;11520;51.198;4.468;2023-02-28T05:52:38;9.43;;;6.65;;
22705;SDS011;11520;51.198;4.468;2023-02-28T05:55:04;11.10;;;6.18;;
22705;SDS011;11520;51.198;4.468;2023-02-28T05:57:30;8.38;;;6.60;;
22705;SDS011;11520;51.198;4.468;2023-02-28T05:59:57;11.52;;;6.53;;
22705;SDS011;11520;51.198;4.468;2023-02-28T06:02:24;11.77;;;6.55;;
22705;SDS011;11520;51.198;4.468;2023-02-28T06:04:50;14.50;;;8.27;;
22705;SDS011;11520;51.198;4.468;2023-02-28T06:07:15;10.48;;;6.47;;
22705;SDS011;11520;51.198;4.468;2023-02-28T06:09:42;13.57;;;7.47;;
22705;SDS011;11520;51.198;4.468;2023-02-28T06:12:10;9.55;;;6.03;;
22705;SDS011;11520;51.198;4.468;2023-02-28T06:14:38;10.32;;;6.35;;
22705;SDS011;11520;51.198;4.468;2023-02-28T06:17:06;10.38;;;5.90;;
22705;SDS011;11520;51.198;4.468;2023-02-28T06:19:31;8.95;;;6.35;;
22705;SDS011;11520;51.198;4.468;2023-02-28T06:21:57;11.00;;;6.82;;
22705;SDS011;11520;51.198;4.468;2023-02-28T06:24:25;9.40;;;6.10;;
22705;SDS011;11520;51.198;4.468;2023-02-28T06:26:57;13.05;;;6.82;;
22705;SDS011;11520;51.198;4.468;2023-02-28T06:29:29;10.68;;;6.55;;
22705;SDS011;11520;51.198;4.468;2023-02-28T06:31:58;12.00;;;6.68;;
22705;SDS011;11520;51.198;4.468;2023-02-28T06:34:23;11.80;;;6.68;;
22705;SDS011;11520;51.198;4.468;2023-02-28T06:36:50;14.18;;;6.63;;
22705;SDS011;11520;51.198;4.468;2023-02-28T06:39:16;8.75;;;6.50;;
22705;SDS011;11520;51.198;4.468;2023-02-28T06:41:42;10.80;;;6.43;;
22705;SDS011;11520;51.198;4.468;2023-02-28T06:44:12;10.25;;;6.40;;
22705;SDS011;11520;51.198;4.468;2023-02-28T06:46:42;10.65;;;6.03;;
22705;SDS011;11520;51.198;4.468;2023-02-28T06:49:10;11.18;;;7.03;;
22705;SDS011;11520;51.198;4.468;2023-02-28T06:51:37;12.00;;;6.70;;
22705;SDS011;11520;51.198;4.468;2023-02-28T06:54:06;13.05;;;6.85;;
22705;SDS011;11520;51.198;4.468;2023-02-28T06:56:36;11.23;;;6.80;;
22705;SDS011;11520;51.198;4.468;2023-02-28T06:59:02;12.90;;;6.55;;
22705;SDS011;11520;51.198;4.468;2023-02-28T07:01:29;12.95;;;7.05;;
22705;SDS011;11520;51.198;4.468;2023-02-28T07:03:56;12.50;;;7.35;;
22705;SDS011;11520;51.198;4.468;2023-02-28T07:06:23;12.25;;;6.82;;
22705;SDS011;11520;51.198;4.468;2023-02-28T07:08:50;10.75;;;6.60;;
22705;SDS011;11520;51.198;4.468;2023-02-28T07:11:17;11.60;;;6.68;;
22705;SDS011;11520;51.198;4.468;2023-02-28T07:13:44;11.05;;;6.80;;
22705;SDS011;11520;51.198;4.468;2023-02-28T07:16:12;12.32;;;6.07;;
22705;SDS011;11520;51.198;4.468;2023-02-28T07:18:39;11.20;;;6.00;;
22705;SDS011;11520;51.198;4.468;2023-02-28T07:21:06;11.98;;;6.53;;
22705;SDS011;11520;51.198;4.468;2023-02-28T07:23:34;9.73;;;5.72;;
22705;SDS011;11520;51.198;4.468;2023-02-28T07:26:02;9.73;;;6.43;;
22705;SDS011;11520;51.198;4.468;2023-02-28T07:28:28;8.63;;;6.13;;
22705;SDS011;11520;51.198;4.468;2023-02-28T07:30:55;9.63;;;5.72;;
22705;SDS011;11520;51.198;4.468;2023-02-28T07:33:20;11.52;;;6.18;;
22705;SDS011;11520;51.198;4.468;2023-02-28T07:35:46;10.27;;;5.90;;
22705;SDS011;11520;51.198;4.468;2023-02-28T07:38:12;8.98;;;6.10;;
22705;SDS011;11520;51.198;4.468;2023-02-28T07:40:39;8.80;;;6.47;;
22705;SDS011;11520;51.198;4.468;2023-02-28T07:43:06;7.93;;;5.38;;
22705;SDS011;11520;51.198;4.468;2023-02-28T07:45:32;8.70;;;5.82;;
22705;SDS011;11520;51.198;4.468;2023-02-28T07:48:00;8.18;;;5.80;;
22705;SDS011;11520;51.198;4.468;2023-02-28T07:50:26;11.75;;;5.88;;
22705;SDS011;11520;51.198;4.468;2023-02-28T07:52:55;9.95;;;5.45;;
22705;SDS011;11520;51.198;4.468;2023-02-28T07:55:22;7.80;;;5.32;;
22705;SDS011;11520;51.198;4.468;2023-02-28T07:57:50;6.50;;;4.95;;
22705;SDS011;11520;51.198;4.468;2023-02-28T08:00:18;7.78;;;5.30;;
22705;SDS011;11520;51.198;4.468;2023-02-28T08:02:44;10.48;;;5.05;;
22705;SDS011;11520;51.198;4.468;2023-02-28T08:05:10;9.82;;;5.95;;
22705;SDS011;11520;51.198;4.468;2023-02-28T08:10:04;9.93;;;4.88;;
22705;SDS011;11520;51.198;4.468;2023-02-28T08:12:33;7.50;;;4.82;;
22705;SDS011;11520;51.198;4.468;2023-02-28T08:14:59;8.68;;;4.97;;
22705;SDS011;11520;51.198;4.468;2023-02-28T08:17:26;11.65;;;5.05;;
22705;SDS011;11520;51.198;4.468;2023-02-28T08:19:52;7.70;;;4.07;;
22705;SDS011;11520;51.198;4.468;2023-02-28T08:22:18;8.50;;;4.68;;
22705;SDS011;11520;51.198;4.468;2023-02-28T08:24:44;6.90;;;4.85;;
22705;SDS011;11520;51.198;4.468;2023-02-28T08:27:10;8.60;;;4.38;;
22705;SDS011;11520;51.198;4.468;2023-02-28T08:29:36;7.75;;;4.28;;
22705;SDS011;11520;51.198;4.468;2023-02-28T08:32:04;7.55;;;3.92;;
22705;SDS011;11520;51.198;4.468;2023-02-28T08:34:31;9.63;;;4.40;;
22705;SDS011;11520;51.198;4.468;2023-02-28T08:36:58;6.20;;;3.63;;
22705;SDS011;11520;51.198;4.468;2023-02-28T08:39:23;7.45;;;4.50;;
22705;SDS011;11520;51.198;4.468;2023-02-28T08:41:49;6.35;;;4.20;;
22705;SDS011;11520;51.198;4.468;2023-02-28T08:44:14;7.35;;;3.53;;
22705;SDS011;11520;51.198;4.468;2023-02-28T08:46:40;9.77;;;4.28;;
22705;SDS011;11520;51.198;4.468;2023-02-28T08:49:07;6.13;;;3.80;;
22705;SDS011;11520;51.198;4.468;2023-02-28T08:51:38;7.10;;;3.95;;
22705;SDS011;11520;51.198;4.468;2023-02-28T08:54:04;7.65;;;3.78;;
22705;SDS011;11520;51.198;4.468;2023-02-28T08:56:29;5.18;;;3.60;;
22705;SDS011;11520;51.198;4.468;2023-02-28T08:58:56;8.93;;;3.85;;
22705;SDS011;11520;51.198;4.468;2023-02-28T09:01:24;7.88;;;3.35;;
22705;SDS011;11520;51.198;4.468;2023-02-28T09:03:54;5.60;;;3.47;;
22705;SDS011;11520;51.198;4.468;2023-02-28T09:06:22;5.70;;;2.97;;
22705;SDS011;11520;51.198;4.468;2023-02-28T09:08:50;4.68;;;2.90;;
22705;SDS011;11520;51.198;4.468;2023-02-28T09:11:16;4.25;;;3.17;;
22705;SDS011;11520;51.198;4.468;2023-02-28T09:13:44;6.85;;;3.17;;
22705;SDS011;11520;51.198;4.468;2023-02-28T09:16:11;6.85;;;3.25;;
22705;SDS011;11520;51.198;4.468;2023-02-28T09:18:39;3.70;;;3.00;;
22705;SDS011;11520;51.198;4.468;2023-02-28T09:21:07;6.47;;;3.95;;
22705;SDS011;11520;51.198;4.468;2023-02-28T09:23:35;6.45;;;3.78;;
22705;SDS011;11520;51.198;4.468;2023-02-28T09:28:32;3.65;;;2.47;;
22705;SDS011;11520;51.198;4.468;2023-02-28T09:30:58;3.03;;;2.38;;
22705;SDS011;11520;51.198;4.468;2023-02-28T09:33:24;5.75;;;2.65;;
22705;SDS011;11520;51.198;4.468;2023-02-28T09:35:50;4.68;;;2.38;;
22705;SDS011;11520;51.198;4.468;2023-02-28T09:38:22;5.75;;;2.65;;
22705;SDS011;11520;51.198;4.468;2023-02-28T09:40:52;4.40;;;2.50;;
22705;SDS011;11520;51.198;4.468;2023-02-28T09:43:21;5.30;;;2.00;;
22705;SDS011;11520;51.198;4.468;2023-02-28T09:46:00;3.72;;;2.10;;
22705;SDS011;11520;51.198;4.468;2023-02-28T09:48:37;4.55;;;1.85;;
22705;SDS011;11520;51.198;4.468;2023-02-28T09:51:22;3.55;;;1.65;;
22705;SDS011;11520;51.198;4.468;2023-02-28T09:53:54;3.95;;;1.50;;
22705;SDS011;11520;51.198;4.468;2023-02-28T09:56:22;3.80;;;2.17;;
22705;SDS011;11520;51.198;4.468;2023-02-28T09:59:05;3.22;;;1.65;;
22705;SDS011;11520;51.198;4.468;2023-02-28T10:04:58;2.55;;;1.55;;
22705;SDS011;11520;51.198;4.468;2023-02-28T10:10:18;2.25;;;1.38;;
22705;SDS011;11520;51.198;4.468;2023-02-28T10:12:51;1.10;;;1.00;;
22705;SDS011;11520;51.198;4.468;2023-02-28T10:15:19;1.40;;;1.10;;
22705;SDS011;11520;51.198;4.468;2023-02-28T10:17:51;2.25;;;1.42;;
22705;SDS011;11520;51.198;4.468;2023-02-28T10:20:30;2.95;;;1.80;;
22705;SDS011;11520;51.198;4.468;2023-02-28T10:25:50;2.30;;;1.52;;
22705;SDS011;11520;51.198;4.468;2023-02-28T10:28:21;3.40;;;1.58;;
22705;SDS011;11520;51.198;4.468;2023-02-28T10:30:51;5.63;;;1.60;;
22705;SDS011;11520;51.198;4.468;2023-02-28T10:33:22;3.42;;;1.75;;
22705;SDS011;11520;51.198;4.468;2023-02-28T10:43:30;2.58;;;1.42;;
22705;SDS011;11520;51.198;4.468;2023-02-28T10:45:58;1.50;;;1.40;;
22705;SDS011;11520;51.198;4.468;2023-02-28T10:48:34;1.30;;;1.20;;
22705;SDS011;11520;51.198;4.468;2023-02-28T10:51:15;2.40;;;1.50;;
22705;SDS011;11520;51.198;4.468;2023-02-28T10:53:53;3.38;;;1.40;;
22705;SDS011;11520;51.198;4.468;2023-02-28T10:56:22;1.95;;;1.10;;
22705;SDS011;11520;51.198;4.468;2023-02-28T11:09:48;2.75;;;1.30;;
22705;SDS011;11520;51.198;4.468;2023-02-28T11:14:50;1.75;;;1.13;;
22705;SDS011;11520;51.198;4.468;2023-02-28T11:17:20;2.88;;;1.38;;
22705;SDS011;11520;51.198;4.468;2023-02-28T11:19:58;3.22;;;1.25;;
22705;SDS011;11520;51.198;4.468;2023-02-28T11:22:37;1.63;;;1.23;;
22705;SDS011;11520;51.198;4.468;2023-02-28T11:25:30;2.35;;;1.40;;
22705;SDS011;11520;51.198;4.468;2023-02-28T11:27:56;2.38;;;1.40;;
22705;SDS011;11520;51.198;4.468;2023-02-28T11:32:57;3.33;;;1.45;;
22705;SDS011;11520;51.198;4.468;2023-02-28T11:35:31;2.30;;;1.30;;
22705;SDS011;11520;51.198;4.468;2023-02-28T11:38:00;4.18;;;1.33;;
22705;SDS011;11520;51.198;4.468;2023-02-28T11:40:31;1.92;;;1.25;;
22705;SDS011;11520;51.198;4.468;2023-02-28T11:51:21;2.47;;;1.20;;
22705;SDS011;11520;51.198;4.468;2023-02-28T11:56:52;1.70;;;1.10;;
22705;SDS011;11520;51.198;4.468;2023-02-28T12:05:37;2.08;;;1.00;;
22705;SDS011;11520;51.198;4.468;2023-02-28T12:08:52;3.40;;;1.48;;
22705;SDS011;11520;51.198;4.468;2023-02-28T12:11:44;1.83;;;1.30;;
22705;SDS011;11520;51.198;4.468;2023-02-28T12:17:40;2.05;;;1.52;;
22705;SDS011;11520;51.198;4.468;2023-02-28T12:25:38;2.33;;;1.67;;
22705;SDS011;11520;51.198;4.468;2023-02-28T12:28:41;3.63;;;1.40;;
22705;SDS011;11520;51.198;4.468;2023-02-28T12:33:53;3.20;;;1.50;;
22705;SDS011;11520;51.198;4.468;2023-02-28T12:36:24;2.33;;;1.35;;
22705;SDS011;11520;51.198;4.468;2023-02-28T12:39:01;3.78;;;1.60;;
22705;SDS011;11520;51.198;4.468;2023-02-28T12:44:14;1.83;;;1.63;;
22705;SDS011;11520;51.198;4.468;2023-02-28T12:46:48;5.65;;;1.95;;
22705;SDS011;11520;51.198;4.468;2023-02-28T12:49:27;3.85;;;2.13;;
22705;SDS011;11520;51.198;4.468;2023-02-28T12:52:08;2.30;;;1.65;;
22705;SDS011;11520;51.198;4.468;2023-02-28T12:54:49;2.40;;;1.53;;
22705;SDS011;11520;51.198;4.468;2023-02-28T12:57:35;5.63;;;1.80;;
22705;SDS011;11520;51.198;4.468;2023-02-28T13:00:33;3.83;;;1.80;;
22705;SDS011;11520;51.198;4.468;2023-02-28T13:08:53;1.73;;;1.40;;
22705;SDS011;11520;51.198;4.468;2023-02-28T13:11:37;3.45;;;1.90;;
22705;SDS011;11520;51.198;4.468;2023-02-28T13:17:01;2.30;;;1.90;;
22705;SDS011;11520;51.198;4.468;2023-02-28T13:19:35;3.35;;;1.65;;
22705;SDS011;11520;51.198;4.468;2023-02-28T13:27:51;3.33;;;2.00;;
22705;SDS011;11520;51.198;4.468;2023-02-28T13:38:37;3.08;;;2.30;;
22705;SDS011;11520;51.198;4.468;2023-02-28T13:51:49;5.43;;;2.17;;
22705;SDS011;11520;51.198;4.468;2023-02-28T14:00:08;3.78;;;2.58;;
22705;SDS011;11520;51.198;4.468;2023-02-28T14:05:15;4.80;;;2.60;;
22705;SDS011;11520;51.198;4.468;2023-02-28T14:07:54;4.18;;;2.47;;
22705;SDS011;11520;51.198;4.468;2023-02-28T14:10:37;3.17;;;2.50;;
22705;SDS011;11520;51.198;4.468;2023-02-28T14:16:09;4.10;;;2.60;;
22705;SDS011;11520;51.198;4.468;2023-02-28T14:18:54;3.38;;;2.38;;
22705;SDS011;11520;51.198;4.468;2023-02-28T14:21:34;3.30;;;1.90;;
22705;SDS011;11520;51.198;4.468;2023-02-28T14:27:11;5.07;;;2.80;;
22705;SDS011;11520;51.198;4.468;2023-02-28T14:38:05;5.03;;;2.50;;
22705;SDS011;11520;51.198;4.468;2023-02-28T14:40:37;4.90;;;2.38;;
22705;SDS011;11520;51.198;4.468;2023-02-28T14:43:05;4.82;;;2.00;;
22705;SDS011;11520;51.198;4.468;2023-02-28T14:45:48;4.45;;;2.55;;
22705;SDS011;11520;51.198;4.468;2023-02-28T14:48:16;4.18;;;2.58;;
22705;SDS011;11520;51.198;4.468;2023-02-28T14:50:48;3.35;;;2.50;;
22705;SDS011;11520;51.198;4.468;2023-02-28T14:53:17;4.35;;;2.85;;
22705;SDS011;11520;51.198;4.468;2023-02-28T14:55:45;3.63;;;2.55;;
22705;SDS011;11520;51.198;4.468;2023-02-28T15:00:51;5.85;;;2.65;;
22705;SDS011;11520;51.198;4.468;2023-02-28T15:03:30;5.45;;;2.90;;
22705;SDS011;11520;51.198;4.468;2023-02-28T15:05:59;2.88;;;2.53;;
22705;SDS011;11520;51.198;4.468;2023-02-28T15:11:04;3.85;;;2.80;;
22705;SDS011;11520;51.198;4.468;2023-02-28T15:13:46;3.88;;;2.42;;
22705;SDS011;11520;51.198;4.468;2023-02-28T15:16:24;3.95;;;2.88;;
22705;SDS011;11520;51.198;4.468;2023-02-28T15:18:56;3.20;;;2.72;;
22705;SDS011;11520;51.198;4.468;2023-02-28T15:21:24;5.55;;;2.60;;
22705;SDS011;11520;51.198;4.468;2023-02-28T15:23:57;5.03;;;2.95;;
22705;SDS011;11520;51.198;4.468;2023-02-28T15:26:30;4.03;;;2.47;;
22705;SDS011;11520;51.198;4.468;2023-02-28T15:29:06;2.97;;;2.55;;
22705;SDS011;11520;51.198;4.468;2023-02-28T15:31:41;3.15;;;2.45;;
22705;SDS011;11520;51.198;4.468;2023-02-28T15:36:44;4.63;;;2.53;;
22705;SDS011;11520;51.198;4.468;2023-02-28T15:39:23;3.10;;;2.80;;
22705;SDS011;11520;51.198;4.468;2023-02-28T15:41:52;5.05;;;2.80;;
22705;SDS011;11520;51.198;4.468;2023-02-28T15:44:36;4.20;;;2.80;;
22705;SDS011;11520;51.198;4.468;2023-02-28T15:47:04;5.38;;;2.88;;
22705;SDS011;11520;51.198;4.468;2023-02-28T15:49:59;4.97;;;3.10;;
22705;SDS011;11520;51.198;4.468;2023-02-28T15:53:00;5.20;;;2.47;;
22705;SDS011;11520;51.198;4.468;2023-02-28T15:55:20;5.28;;;3.00;;
22705;SDS011;11520;51.198;4.468;2023-02-28T15:57:51;4.55;;;2.63;;
22705;SDS011;11520;51.198;4.468;2023-02-28T16:00:22;4.28;;;3.05;;
22705;SDS011;11520;51.198;4.468;2023-02-28T16:02:49;7.13;;;3.80;;
22705;SDS011;11520;51.198;4.468;2023-02-28T16:05:25;3.58;;;2.42;;
22705;SDS011;11520;51.198;4.468;2023-02-28T16:07:53;4.85;;;3.08;;
22705;SDS011;11520;51.198;4.468;2023-02-28T16:10:20;8.77;;;2.90;;
22705;SDS011;11520;51.198;4.468;2023-02-28T16:12:52;4.63;;;2.92;;
22705;SDS011;11520;51.198;4.468;2023-02-28T16:15:26;5.60;;;2.92;;
22705;SDS011;11520;51.198;4.468;2023-02-28T16:17:55;6.20;;;2.92;;
22705;SDS011;11520;51.198;4.468;2023-02-28T16:20:23;2.88;;;2.58;;
22705;SDS011;11520;51.198;4.468;2023-02-28T16:22:52;5.97;;;2.85;;
22705;SDS011;11520;51.198;4.468;2023-02-28T16:25:19;4.25;;;2.40;;
22705;SDS011;11520;51.198;4.468;2023-02-28T16:27:50;4.20;;;2.75;;
22705;SDS011;11520;51.198;4.468;2023-02-28T16:30:26;4.73;;;3.10;;
22705;SDS011;11520;51.198;4.468;2023-02-28T16:32:56;5.45;;;2.80;;
22705;SDS011;11520;51.198;4.468;2023-02-28T16:35:24;8.50;;;2.70;;
22705;SDS011;11520;51.198;4.468;2023-02-28T16:37:53;4.90;;;2.97;;
22705;SDS011;11520;51.198;4.468;2023-02-28T16:40:20;5.05;;;3.15;;
22705;SDS011;11520;51.198;4.468;2023-02-28T16:42:49;4.00;;;2.70;;
22705;SDS011;11520;51.198;4.468;2023-02-28T16:45:18;3.83;;;2.58;;
22705;SDS011;11520;51.198;4.468;2023-02-28T16:47:47;3.88;;;3.03;;
22705;SDS011;11520;51.198;4.468;2023-02-28T16:50:19;5.43;;;2.92;;
22705;SDS011;11520;51.198;4.468;2023-02-28T16:52:49;4.72;;;3.10;;
22705;SDS011;11520;51.198;4.468;2023-02-28T16:55:20;4.05;;;2.97;;
22705;SDS011;11520;51.198;4.468;2023-02-28T17:00:17;6.38;;;3.22;;
22705;SDS011;11520;51.198;4.468;2023-02-28T17:02:43;9.07;;;4.30;;
22705;SDS011;11520;51.198;4.468;2023-02-28T17:05:12;5.50;;;4.70;;
22705;SDS011;11520;51.198;4.468;2023-02-28T17:07:42;7.05;;;4.45;;
22705;SDS011;11520;51.198;4.468;2023-02-28T17:10:11;5.75;;;3.72;;
22705;SDS011;11520;51.198;4.468;2023-02-28T17:12:42;9.32;;;3.97;;
22705;SDS011;11520;51.198;4.468;2023-02-28T17:15:09;6.82;;;3.95;;
22705;SDS011;11520;51.198;4.468;2023-02-28T17:17:36;6.05;;;3.50;;
22705;SDS011;11520;51.198;4.468;2023-02-28T17:20:03;5.93;;;3.72;;
22705;SDS011;11520;51.198;4.468;2023-02-28T17:22:32;8.10;;;4.28;;
22705;SDS011;11520;51.198;4.468;2023-02-28T17:24:58;5.63;;;3.40;;
22705;SDS011;11520;51.198;4.468;2023-02-28T17:27:25;6.13;;;3.67;;
22705;SDS011;11520;51.198;4.468;2023-02-28T17:29:51;8.52;;;4.32;;
22705;SDS011;11520;51.198;4.468;2023-02-28T17:32:23;6.70;;;4.38;;
22705;SDS011;11520;51.198;4.468;2023-02-28T17:34:50;9.70;;;4.13;;
22705;SDS011;11520;51.198;4.468;2023-02-28T17:37:16;6.43;;;3.83;;
22705;SDS011;11520;51.198;4.468;2023-02-28T17:39:43;6.38;;;4.13;;
22705;SDS011;11520;51.198;4.468;2023-02-28T17:42:09;5.65;;;3.90;;
22705;SDS011;11520;51.198;4.468;2023-02-28T17:44:34;6.88;;;3.92;;
22705;SDS011;11520;51.198;4.468;2023-02-28T17:47:02;5.45;;;4.25;;
22705;SDS011;11520;51.198;4.468;2023-02-28T17:49:30;8.70;;;4.03;;
22705;SDS011;11520;51.198;4.468;2023-02-28T17:51:58;6.80;;;4.18;;
22705;SDS011;11520;51.198;4.468;2023-02-28T17:54:23;8.45;;;4.55;;
22705;SDS011;11520;51.198;4.468;2023-02-28T17:56:50;10.80;;;4.43;;
22705;SDS011;11520;51.198;4.468;2023-02-28T17:59:17;5.72;;;3.83;;
22705;SDS011;11520;51.198;4.468;2023-02-28T18:04:11;6.20;;;3.90;;